Time;durP1;ratioP1;P1;durP2;ratioP2;P2;SDS_P1;SDS_P2;PMS_P1;PMS_P2;Temp;Humidity;BMP_temperature;BMP_pressure;BME280_temperature;BME280_humidity;BME280_pressure;Samples;Min_cycle;Max_cycle;Signal;HPM_P1;HPM_P2
2022/05/20 00:00:48;;;;;;;23.17;11.32;;;23.40;53.80;;;;;;4879349;29;20502;-72
2022/05/20 00:03:15;;;;;;;19.55;10.07;;;23.40;53.80;;;;;;4878251;29;20490;-72
2022/05/20 00:05:41;;;;;;;19.73;10.25;;;23.40;53.90;;;;;;4879729;29;20021;-72
2022/05/20 00:08:08;;;;;;;18.15;9.55;;;23.50;53.90;;;;;;4880473;29;20057;-72
2022/05/20 00:10:34;;;;;;;16.15;9.52;;;23.40;53.80;;;;;;4879416;29;20502;-72
2022/05/20 00:13:00;;;;;;;18.70;9.23;;;23.40;54.00;;;;;;4879277;29;20041;-71
2022/05/20 00:15:29;;;;;;;16.83;8.90;;;23.40;54.00;;;;;;4879425;29;20032;-72
2022/05/20 00:17:55;;;;;;;17.65;8.35;;;23.40;54.10;;;;;;4880233;29;20029;-71
2022/05/20 00:20:23;;;;;;;20.10;8.23;;;23.40;54.10;;;;;;4879615;29;20450;-72
2022/05/20 00:22:49;;;;;;;16.33;8.18;;;23.40;54.20;;;;;;4879298;29;20028;-71
2022/05/20 00:28:02;;;;;;;15.65;8.02;;;23.40;54.30;;;;;;4879011;29;20045;-71
2022/05/20 00:30:28;;;;;;;13.95;7.28;;;23.40;54.40;;;;;;4879255;29;20335;-72
2022/05/20 00:32:53;;;;;;;15.93;8.00;;;23.40;54.50;;;;;;4878719;29;20033;-72
2022/05/20 00:35:21;;;;;;;14.65;7.95;;;23.40;54.60;;;;;;4880035;29;20036;-71
2022/05/20 00:37:47;;;;;;;16.92;7.43;;;23.40;54.70;;;;;;4879935;29;20055;-72
2022/05/20 00:40:15;;;;;;;12.85;7.38;;;23.40;54.50;;;;;;4863462;29;20491;-72
2022/05/20 00:42:42;;;;;;;13.27;6.97;;;23.40;54.60;;;;;;4879670;29;20042;-72
2022/05/20 00:45:10;;;;;;;14.23;6.70;;;23.40;54.80;;;;;;4879675;29;20037;-72
2022/05/20 00:47:35;;;;;;;14.05;6.65;;;23.40;54.90;;;;;;4879521;29;20037;-72
2022/05/20 00:50:06;;;;;;;13.32;6.28;;;23.40;55.00;;;;;;4880101;29;20402;-72
2022/05/20 00:52:35;;;;;;;13.57;6.93;;;23.40;55.10;;;;;;4879831;29;20052;-72
2022/05/20 00:55:07;;;;;;;14.13;6.78;;;23.40;55.10;;;;;;4878889;29;20049;-72
2022/05/20 00:57:43;;;;;;;11.90;6.32;;;23.40;55.40;;;;;;4878434;29;20033;-71
2022/05/20 01:00:18;;;;;;;11.85;6.53;;;23.40;55.50;;;;;;4880023;29;20084;-72
2022/05/20 01:02:47;;;;;;;13.40;6.20;;;23.40;55.40;;;;;;4878508;29;20039;-72
2022/05/20 01:05:37;;;;;;;11.43;5.97;;;23.40;55.40;;;;;;4879853;29;20025;-72
2022/05/20 01:08:04;;;;;;;10.20;5.38;;;23.40;55.50;;;;;;4879401;29;20104;-71
2022/05/20 01:10:30;;;;;;;11.90;6.22;;;23.40;55.60;;;;;;4863111;29;20044;-72
2022/05/20 01:12:57;;;;;;;10.35;5.18;;;23.40;55.50;;;;;;4878197;29;20117;-72
2022/05/20 01:15:23;;;;;;;8.88;4.82;;;23.40;55.70;;;;;;4879589;29;20478;-72
2022/05/20 01:17:52;;;;;;;8.25;4.85;;;23.40;55.80;;;;;;4879327;29;20029;-72
2022/05/20 01:20:23;;;;;;;9.55;5.00;;;23.40;55.70;;;;;;4879291;29;20582;-73
2022/05/20 01:23:01;;;;;;;9.85;5.15;;;23.40;55.70;;;;;;4879010;29;20037;-73
2022/05/20 01:25:29;;;;;;;10.63;5.43;;;23.40;55.60;;;;;;4878139;29;20121;-73
2022/05/20 01:27:55;;;;;;;9.98;4.90;;;23.40;55.30;;;;;;4876080;29;20088;-74
2022/05/20 01:30:24;;;;;;;11.63;5.20;;;23.40;55.80;;;;;;4879515;29;20060;-76
2022/05/20 01:32:50;;;;;;;11.18;5.07;;;23.40;56.20;;;;;;4878108;29;20561;-73
2022/05/20 01:35:38;;;;;;;9.32;5.38;;;23.40;55.60;;;;;;4878004;29;20029;-72
2022/05/20 01:38:05;;;;;;;9.63;5.18;;;23.40;55.50;;;;;;4878870;29;20072;-72
2022/05/20 01:40:48;;;;;;;8.50;4.70;;;23.40;55.50;;;;;;4877604;29;20494;-71
2022/05/20 01:43:39;;;;;;;8.77;4.35;;;23.30;55.50;;;;;;4879017;29;20040;-72
2022/05/20 01:46:41;;;;;;;11.48;4.88;;;23.40;55.40;;;;;;4878023;29;20119;-73
2022/05/20 01:49:10;;;;;;;8.90;5.18;;;23.30;55.50;;;;;;4815852;29;20053;-74
2022/05/20 01:52:12;;;;;;;8.95;4.25;;;23.40;55.80;;;;;;4878818;29;20037;-73
2022/05/20 01:55:01;;;;;;;9.77;4.57;;;23.30;55.70;;;;;;4858981;29;20383;-74
2022/05/20 01:57:31;;;;;;;;;;;23.40;56.10;;;;;;4870621;29;20056;-73
2022/05/20 02:00:14;;;;;;;9.77;4.32;;;23.40;56.30;;;;;;4877126;29;19911;-73
2022/05/20 02:03:03;;;;;;;6.95;4.07;;;23.40;56.20;;;;;;4877787;29;20033;-73
2022/05/20 02:05:56;;;;;;;11.60;4.05;;;23.40;56.20;;;;;;4876800;29;20280;-74
2022/05/20 02:08:37;;;;;;;5.78;3.50;;;23.40;56.20;;;;;;4878613;29;20056;-73
2022/05/20 02:11:32;;;;;;;7.53;3.95;;;23.40;56.30;;;;;;4877132;29;20523;-74
2022/05/20 02:14:26;;;;;;;9.38;3.97;;;23.40;56.50;;;;;;4877448;29;20045;-74
2022/05/20 02:17:24;;;;;;;8.65;3.75;;;23.30;56.40;;;;;;4861578;29;20414;-73
2022/05/20 02:20:14;;;;;;;8.60;3.40;;;23.30;56.40;;;;;;4878577;29;20036;-73
2022/05/20 02:22:47;;;;;;;7.82;3.47;;;23.30;56.10;;;;;;4878331;29;20036;-73
2022/05/20 02:25:19;;;;;;;8.02;3.90;;;23.40;56.40;;;;;;4877110;29;20117;-74
2022/05/20 02:27:50;;;;;;;9.60;3.85;;;23.30;55.80;;;;;;4877975;29;20033;-73
2022/05/20 02:30:20;;;;;;;6.30;3.75;;;23.30;56.30;;;;;;4878248;29;20558;-74
2022/05/20 02:32:59;;;;;;;8.05;3.80;;;23.30;56.20;;;;;;4878191;29;20036;-73
2022/05/20 02:35:25;;;;;;;7.97;3.33;;;23.40;56.50;;;;;;4878347;29;20037;-74
2022/05/20 02:37:51;;;;;;;5.28;3.35;;;23.40;56.80;;;;;;4877771;29;20090;-74
2022/05/20 02:40:19;;;;;;;10.25;3.60;;;23.40;56.50;;;;;;4877079;29;20052;-73
2022/05/20 02:42:45;;;;;;;9.75;3.70;;;23.30;56.40;;;;;;4878104;29;20084;-73
2022/05/20 02:45:11;;;;;;;7.38;3.67;;;23.30;56.30;;;;;;4878121;29;20041;-73
2022/05/20 02:47:37;;;;;;;8.70;3.63;;;23.40;56.70;;;;;;4876701;29;20443;-73
2022/05/20 02:50:09;;;;;;;7.15;3.67;;;23.40;56.80;;;;;;4876583;29;20052;-73
2022/05/20 02:52:36;;;;;;;7.43;3.65;;;23.30;56.70;;;;;;4877726;29;20037;-73
2022/05/20 02:55:03;;;;;;;9.63;3.67;;;23.40;56.80;;;;;;4877788;29;20063;-74
2022/05/20 02:57:29;;;;;;;6.32;3.25;;;23.40;56.80;;;;;;4877642;29;20111;-73
2022/05/20 03:05:24;;;;;;;7.88;3.42;;;23.30;56.80;;;;;;4876717;29;20032;-74
2022/05/20 03:07:50;;;;;;;7.10;3.50;;;23.40;56.90;;;;;;4875816;29;20025;-73
2022/05/20 03:10:16;;;;;;;6.95;3.35;;;23.30;56.40;;;;;;4875059;29;20657;-74
2022/05/20 03:12:41;;;;;;;5.20;2.90;;;23.30;56.10;;;;;;4877941;29;20041;-73
2022/05/20 03:15:10;;;;;;;5.97;3.15;;;23.30;56.30;;;;;;4877885;29;20037;-73
2022/05/20 03:17:37;;;;;;;6.63;3.43;;;23.30;56.90;;;;;;4877308;29;20072;-71
2022/05/20 03:20:04;;;;;;;4.88;3.28;;;23.30;56.20;;;;;;4877661;29;20040;-71
2022/05/20 03:22:33;;;;;;;6.07;2.90;;;23.30;56.30;;;;;;4876359;29;20033;-72
2022/05/20 03:24:58;;;;;;;8.32;3.45;;;23.30;56.50;;;;;;4876103;29;20474;-72
2022/05/20 03:27:24;;;;;;;5.25;3.00;;;23.30;56.80;;;;;;4877198;29;20040;-72
2022/05/20 03:29:50;;;;;;;4.72;3.08;;;23.30;56.30;;;;;;4877519;29;20538;-72
2022/05/20 03:32:16;;;;;;;5.95;3.17;;;23.30;56.40;;;;;;4877257;29;20112;-72
2022/05/20 03:34:43;;;;;;;5.45;3.33;;;23.30;56.30;;;;;;4876104;29;20063;-72
2022/05/20 03:37:09;;;;;;;5.22;3.30;;;23.30;56.30;;;;;;4877414;29;20112;-73
2022/05/20 03:39:35;;;;;;;4.65;2.80;;;23.30;56.70;;;;;;4877243;29;20226;-73
2022/05/20 03:42:02;;;;;;;6.85;3.03;;;23.30;56.40;;;;;;4877358;29;20060;-72
2022/05/20 03:44:28;;;;;;;4.95;2.80;;;23.30;56.80;;;;;;4877444;29;20029;-72
2022/05/20 03:46:55;;;;;;;7.55;2.97;;;23.30;57.40;;;;;;4877369;29;20501;-72
2022/05/20 03:49:24;;;;;;;5.55;3.00;;;23.30;57.20;;;;;;4877135;29;20037;-72
2022/05/20 03:51:51;;;;;;;4.85;2.90;;;23.30;57.00;;;;;;4877330;29;20430;-73
2022/05/20 03:54:20;;;;;;;6.28;2.95;;;23.30;57.20;;;;;;4876150;29;20116;-73
2022/05/20 03:56:46;;;;;;;8.57;2.90;;;23.40;57.40;;;;;;4877235;29;20031;-73
2022/05/20 03:59:12;;;;;;;5.82;3.05;;;23.40;56.60;;;;;;4877162;29;20033;-73
2022/05/20 04:01:58;;;;;;;5.50;3.05;;;23.30;57.40;;;;;;4877156;29;20081;-73
2022/05/20 04:04:33;;;;;;;5.22;3.28;;;23.30;56.80;;;;;;4877419;29;20040;-73
2022/05/20 04:07:01;;;;;;;5.88;3.20;;;23.30;57.40;;;;;;4877648;29;20427;-73
2022/05/20 04:09:27;;;;;;;3.58;2.78;;;23.30;57.00;;;;;;4876958;29;20081;-73
2022/05/20 04:11:58;;;;;;;6.72;2.80;;;23.30;56.70;;;;;;4875650;29;20497;-73
2022/05/20 04:14:27;;;;;;;6.90;3.17;;;23.30;56.70;;;;;;4877334;29;20406;-73
2022/05/20 04:16:57;;;;;;;8.93;3.05;;;23.30;56.70;;;;;;4877018;29;20068;-73
2022/05/20 04:19:24;;;;;;;6.15;2.80;;;23.30;56.90;;;;;;4879180;29;20029;-73
2022/05/20 04:21:56;;;;;;;6.82;3.42;;;23.30;57.10;;;;;;4880343;29;20036;-73
2022/05/20 04:24:22;;;;;;;4.90;3.10;;;23.30;57.50;;;;;;4879709;29;20055;-72
2022/05/20 04:26:48;;;;;;;5.28;3.10;;;23.30;56.80;;;;;;4880601;29;20036;-72
2022/05/20 04:29:14;;;;;;;4.43;2.90;;;23.30;57.60;;;;;;4878900;29;20097;-72
2022/05/20 04:31:44;;;;;;;5.00;2.72;;;23.30;57.50;;;;;;4880139;29;20064;-72
2022/05/20 04:34:10;;;;;;;5.35;3.35;;;23.30;56.90;;;;;;4880992;29;20358;-72
2022/05/20 04:36:36;;;;;;;4.53;3.05;;;23.30;57.10;;;;;;4880163;29;20037;-72
2022/05/20 04:39:02;;;;;;;6.57;2.97;;;23.30;57.30;;;;;;4879844;29;20390;-72
2022/05/20 04:47:00;;;;;;;10.13;3.30;;;23.30;58.60;;;;;;4880034;29;20021;-72
2022/05/20 04:49:28;;;;;;;7.03;3.30;;;23.40;58.90;;;;;;4878837;29;20463;-74
2022/05/20 04:51:55;;;;;;;15.20;4.28;;;23.40;58.50;;;;;;4878841;29;20442;-75
2022/05/20 04:57:07;;;;;;;21.08;5.18;;;23.30;59.50;;;;;;4879909;29;20438;-78
2022/05/20 04:59:38;;;;;;;19.63;5.10;;;23.40;59.50;;;;;;4860941;29;20393;-73
2022/05/20 05:02:05;;;;;;;8.90;4.80;;;23.40;61.20;;;;;;4878311;29;20033;-72
2022/05/20 05:04:31;;;;;;;10.15;4.63;;;23.30;59.20;;;;;;4879576;29;20072;-72
2022/05/20 05:06:58;;;;;;;10.88;4.35;;;23.30;59.80;;;;;;4878536;29;20118;-72
2022/05/20 05:09:24;;;;;;;15.10;4.93;;;23.30;59.80;;;;;;4879384;29;20116;-72
2022/05/20 05:12:03;;;;;;;13.30;5.20;;;23.30;61.00;;;;;;4879906;29;20108;-72
2022/05/20 05:14:39;;;;;;;9.50;5.93;;;23.20;60.40;;;;;;4854015;29;20422;-78
2022/05/20 05:17:08;;;;;;;18.27;8.20;;;23.20;60.00;;;;;;4874919;29;20503;-79
2022/05/20 05:19:36;;;;;;;15.95;9.52;;;23.10;60.10;;;;;;4875321;29;20037;-80
2022/05/20 05:22:04;;;;;;;18.63;10.30;;;23.20;60.10;;;;;;4844652;29;20490;-81
2022/05/20 05:24:31;;;;;;;16.38;8.35;;;23.20;60.40;;;;;;4860708;29;20025;-81
2022/05/20 05:26:56;;;;;;;13.55;9.35;;;23.10;60.80;;;;;;4862345;29;20030;-80
2022/05/20 05:29:22;;;;;;;15.63;9.60;;;23.20;60.60;;;;;;4870035;29;20029;-81
2022/05/20 05:31:48;;;;;;;12.48;7.40;;;23.10;61.30;;;;;;4890783;29;20467;-82
2022/05/20 05:34:15;;;;;;;11.60;7.47;;;23.10;60.70;;;;;;4893636;29;20037;-81
2022/05/20 05:36:40;;;;;;;15.30;6.55;;;23.20;61.20;;;;;;4893376;29;20033;-80
2022/05/20 05:39:06;;;;;;;17.30;6.38;;;23.20;61.60;;;;;;4878956;29;20393;-80
2022/05/20 05:41:33;;;;;;;12.30;6.55;;;23.20;61.70;;;;;;4894000;29;20036;-80
2022/05/20 05:44:02;;;;;;;13.40;6.28;;;23.20;61.20;;;;;;4893818;29;20033;-80
2022/05/20 05:46:28;;;;;;;13.13;5.95;;;23.20;62.50;;;;;;4879598;29;20076;-80
2022/05/20 05:48:54;;;;;;;18.08;5.75;;;23.20;63.90;;;;;;4878986;29;20508;-82
2022/05/20 05:51:20;;;;;;;13.77;5.97;;;23.20;62.40;;;;;;4893030;29;20541;-71
2022/05/20 05:53:45;;;;;;;15.55;6.13;;;23.30;62.00;;;;;;4893199;29;20045;-71
2022/05/20 05:56:11;;;;;;;12.45;6.20;;;23.50;62.30;;;;;;4878955;29;20041;-72
2022/05/20 05:58:37;;;;;;;10.05;5.53;;;23.90;62.40;;;;;;4893049;29;20039;-75
2022/05/20 06:01:03;;;;;;;12.40;5.95;;;23.90;60.60;;;;;;4862219;29;20048;-75
2022/05/20 06:03:29;;;;;;;9.93;6.07;;;23.80;61.10;;;;;;4871338;29;20049;-75
2022/05/20 06:05:56;;;;;;;10.55;5.47;;;23.70;61.60;;;;;;4860026;29;20037;-75
2022/05/20 06:08:22;;;;;;;11.80;6.22;;;23.50;62.10;;;;;;4858195;29;20494;-72
2022/05/20 06:10:48;;;;;;;12.82;5.68;;;23.50;62.00;;;;;;4859909;29;20029;-72
2022/05/20 06:13:22;;;;;;;11.05;5.80;;;23.40;61.60;;;;;;4858746;29;20033;-72
2022/05/20 06:15:48;;;;;;;10.32;5.07;;;23.30;62.00;;;;;;4859948;29;20032;-73
2022/05/20 06:18:14;;;;;;;9.90;5.50;;;23.30;61.20;;;;;;4863178;29;20029;-70
2022/05/20 06:20:40;;;;;;;11.60;5.18;;;23.30;62.10;;;;;;4872506;29;20407;-72
2022/05/20 06:23:05;;;;;;;9.80;5.03;;;23.30;62.10;;;;;;4858773;29;20061;-71
2022/05/20 06:25:31;;;;;;;13.43;5.03;;;23.30;61.40;;;;;;4858598;29;20074;-71
2022/05/20 06:28:06;;;;;;;9.43;4.95;;;23.20;61.40;;;;;;4859999;29;20108;-71
2022/05/20 06:30:32;;;;;;;8.50;4.78;;;23.20;61.40;;;;;;4875146;29;20104;-72
2022/05/20 06:32:58;;;;;;;8.23;4.93;;;23.20;60.80;;;;;;4874934;29;20037;-72
2022/05/20 06:40:55;;;;;;;8.75;4.63;;;23.20;60.20;;;;;;4858016;29;20030;-72
2022/05/20 06:43:21;;;;;;;11.02;4.35;;;23.20;60.50;;;;;;4858423;29;20033;-72
2022/05/20 06:45:52;;;;;;;11.90;4.65;;;23.30;60.50;;;;;;4889057;29;20036;-72
2022/05/20 06:48:18;;;;;;;6.63;3.88;;;23.30;60.10;;;;;;4874707;29;20037;-71
2022/05/20 06:50:47;;;;;;;7.40;3.60;;;23.20;59.70;;;;;;4874892;29;20025;-72
2022/05/20 06:53:13;;;;;;;8.23;3.70;;;23.30;59.70;;;;;;4888829;29;20029;-72
2022/05/20 06:55:41;;;;;;;10.43;4.20;;;23.30;59.60;;;;;;4876171;29;20034;-71
2022/05/20 06:58:08;;;;;;;12.02;4.65;;;23.30;60.00;;;;;;4858176;29;20037;-72
2022/05/20 07:00:34;;;;;;;11.35;4.43;;;23.30;60.60;;;;;;4858386;29;20482;-74
2022/05/20 07:03:00;;;;;;;12.55;4.68;;;23.30;59.60;;;;;;4857801;29;20491;-73
2022/05/20 07:05:27;;;;;;;8.18;3.88;;;23.30;59.20;;;;;;4858433;29;20025;-72
2022/05/20 07:07:53;;;;;;;11.70;3.97;;;23.40;58.90;;;;;;4872067;29;20525;-72
2022/05/20 07:10:20;;;;;;;10.75;4.22;;;23.40;59.30;;;;;;4858237;29;20026;-72
2022/05/20 07:12:46;;;;;;;12.98;3.83;;;23.40;58.70;;;;;;4870613;29;20388;-72
2022/05/20 07:15:12;;;;;;;9.00;3.50;;;23.30;58.50;;;;;;4858406;29;20776;-72
2022/05/20 07:17:38;;;;;;;6.32;3.30;;;23.30;58.40;;;;;;4859552;29;20061;-73
2022/05/20 07:20:06;;;;;;;9.38;3.72;;;23.30;58.30;;;;;;4874606;29;20047;-72
2022/05/20 07:22:32;;;;;;;9.90;3.72;;;23.30;58.10;;;;;;4874224;29;20037;-72
2022/05/20 07:24:58;;;;;;;13.48;3.20;;;23.30;58.00;;;;;;4872468;29;20029;-73
2022/05/20 07:27:23;;;;;;;10.95;3.65;;;23.30;58.00;;;;;;4857854;29;20109;-73
2022/05/20 07:29:49;;;;;;;9.88;3.30;;;23.30;57.70;;;;;;4864329;29;20047;-73
2022/05/20 07:32:15;;;;;;;7.03;3.53;;;23.30;57.90;;;;;;4875391;29;20092;-72
2022/05/20 07:34:40;;;;;;;8.73;3.35;;;23.30;57.90;;;;;;4858000;29;20038;-73
2022/05/20 07:37:06;;;;;;;7.88;3.30;;;23.40;57.70;;;;;;4858415;29;20487;-73
2022/05/20 07:39:32;;;;;;;5.60;2.95;;;23.40;57.90;;;;;;4857897;29;20033;-73
2022/05/20 07:41:58;;;;;;;5.25;2.75;;;23.40;57.50;;;;;;4857571;29;20072;-73
2022/05/20 07:44:24;;;;;;;9.73;3.22;;;23.40;57.80;;;;;;4875613;29;20529;-73
2022/05/20 07:46:49;;;;;;;5.85;3.10;;;23.40;57.30;;;;;;4871908;29;20085;-72
2022/05/20 07:49:18;;;;;;;9.43;3.00;;;23.40;57.20;;;;;;4857650;29;20037;-72
2022/05/20 07:51:47;;;;;;;6.70;3.17;;;23.40;57.20;;;;;;4858377;29;20076;-72
2022/05/20 07:54:19;;;;;;;5.20;2.72;;;23.40;57.20;;;;;;4861480;29;20391;-72
2022/05/20 07:56:57;;;;;;;6.30;3.22;;;23.40;57.00;;;;;;4861486;29;20033;-73
2022/05/20 07:59:29;;;;;;;7.00;3.55;;;23.40;57.00;;;;;;4875663;29;20106;-72
2022/05/20 08:01:56;;;;;;;8.30;2.97;;;23.40;57.00;;;;;;4875606;29;20033;-74
2022/05/20 08:07:14;;;;;;;;;;;23.40;56.20;;;;;;4859577;29;20100;-74
2022/05/20 08:09:41;;;;;;;15.80;3.03;;;23.40;56.90;;;;;;4859317;29;19923;-75
2022/05/20 08:12:14;;;;;;;11.63;3.60;;;23.40;57.10;;;;;;4858146;29;20040;-74
2022/05/20 08:14:40;;;;;;;12.20;3.78;;;23.50;57.50;;;;;;4858989;29;20045;-75
2022/05/20 08:17:06;;;;;;;16.73;3.78;;;23.50;57.50;;;;;;4858082;29;20931;-74
2022/05/20 08:19:32;;;;;;;13.45;4.53;;;23.50;57.50;;;;;;4859543;29;20032;-74
2022/05/20 08:21:58;;;;;;;16.63;4.18;;;23.50;57.30;;;;;;4859775;29;20510;-75
2022/05/20 08:24:25;;;;;;;13.55;3.60;;;23.60;57.30;;;;;;4860116;29;20057;-73
2022/05/20 08:26:51;;;;;;;19.83;4.15;;;23.60;57.10;;;;;;4859966;29;20034;-73
2022/05/20 08:29:17;;;;;;;15.65;3.83;;;23.60;57.00;;;;;;4859858;29;20029;-74
2022/05/20 08:31:44;;;;;;;13.95;4.20;;;23.60;57.10;;;;;;4859588;29;20179;-73
2022/05/20 08:34:11;;;;;;;13.63;4.10;;;23.60;57.30;;;;;;4859934;29;20029;-74
2022/05/20 08:36:38;;;;;;;9.95;3.60;;;23.60;57.20;;;;;;4858555;29;20439;-74
2022/05/20 08:39:05;;;;;;;12.15;3.97;;;23.70;56.80;;;;;;4859525;29;20030;-73
2022/05/20 08:41:37;;;;;;;13.63;4.28;;;23.70;57.10;;;;;;4858640;29;20043;-73
2022/05/20 08:44:06;;;;;;;14.13;4.47;;;23.70;57.10;;;;;;4859721;29;20082;-74
2022/05/20 08:46:32;;;;;;;12.50;4.15;;;23.70;57.30;;;;;;4859465;29;20021;-74
2022/05/20 08:48:58;;;;;;;14.02;4.90;;;23.70;57.00;;;;;;4857989;29;20096;-74
2022/05/20 08:51:29;;;;;;;15.52;4.95;;;23.70;57.00;;;;;;4854564;29;20530;-74
2022/05/20 08:53:55;;;;;;;16.67;5.30;;;23.70;56.80;;;;;;4841834;29;20719;-73
2022/05/20 08:56:24;;;;;;;15.55;5.47;;;23.70;56.80;;;;;;4859704;29;20037;-73
2022/05/20 08:59:24;;;;;;;17.15;5.00;;;23.70;56.80;;;;;;4859323;29;20089;-74
2022/05/20 09:01:51;;;;;;;;;;;23.70;56.70;;;;;;4854861;29;20467;-75
2022/05/20 09:04:21;;;;;;;14.52;5.07;;;23.70;56.80;;;;;;4877032;29;20145;-74
2022/05/20 09:07:06;;;;;;;12.98;4.35;;;23.70;57.10;;;;;;4878097;29;20077;-74
2022/05/20 09:09:47;;;;;;;13.15;4.00;;;23.80;58.00;;;;;;4874675;29;20538;-74
2022/05/20 09:12:39;;;;;;;11.30;4.00;;;23.80;57.90;;;;;;4877065;29;20034;-73
2022/05/20 09:18:18;;;;;;;20.20;4.50;;;23.80;57.20;;;;;;4877664;29;20045;-73
2022/05/20 09:20:52;;;;;;;19.45;4.78;;;23.80;57.00;;;;;;4877163;29;20036;-74
2022/05/20 09:23:20;;;;;;;16.50;4.32;;;23.80;56.60;;;;;;4877638;29;20051;-73
2022/05/20 09:25:48;;;;;;;19.35;4.70;;;23.80;56.70;;;;;;4876813;29;20066;-72
2022/05/20 09:28:29;;;;;;;12.52;3.92;;;23.80;56.60;;;;;;4877257;29;20025;-70
2022/05/20 09:31:05;;;;;;;25.10;4.55;;;23.80;56.90;;;;;;4877473;29;20052;-71
2022/05/20 09:33:35;;;;;;;17.40;4.40;;;23.80;56.70;;;;;;4877825;29;20040;-71
2022/05/20 09:36:02;;;;;;;14.90;5.68;;;23.80;56.70;;;;;;4877619;29;20568;-71
2022/05/20 09:38:41;;;;;;;27.42;5.65;;;23.80;57.10;;;;;;4877021;29;20393;-71
2022/05/20 09:41:14;;;;;;;16.40;5.37;;;23.90;57.00;;;;;;4876538;29;20119;-71
2022/05/20 09:43:44;;;;;;;29.13;6.57;;;23.80;57.30;;;;;;4877514;29;20080;-71
2022/05/20 09:46:39;;;;;;;18.88;5.15;;;23.80;58.20;;;;;;4877636;29;20490;-72
2022/05/20 09:49:42;;;;;;;18.13;6.55;;;23.90;57.80;;;;;;4877712;29;20089;-71
2022/05/20 09:52:25;;;;;;;21.75;5.30;;;23.80;57.90;;;;;;4878567;29;20096;-71
2022/05/20 09:55:10;;;;;;;17.00;6.03;;;23.80;57.80;;;;;;4880494;29;20108;-74
2022/05/20 09:57:40;;;;;;;21.15;6.53;;;23.80;56.20;;;;;;4866132;29;20056;-74
2022/05/20 10:00:28;;;;;;;20.30;6.00;;;23.80;57.20;;;;;;4880923;29;20070;-75
2022/05/20 10:03:27;;;;;;;16.23;5.93;;;23.90;56.80;;;;;;4877623;29;20104;-75
2022/05/20 10:06:16;;;;;;;17.90;6.07;;;23.90;57.00;;;;;;4877506;29;20040;-74
2022/05/20 10:09:18;;;;;;;15.23;5.95;;;23.90;57.30;;;;;;4858637;29;20049;-74
2022/05/20 10:11:56;;;;;;;17.95;6.05;;;23.90;57.50;;;;;;4877551;29;20040;-75
2022/05/20 10:14:28;;;;;;;19.40;6.88;;;23.90;57.60;;;;;;4877361;29;20036;-74
2022/05/20 10:17:03;;;;;;;14.32;6.25;;;23.90;57.50;;;;;;4877317;29;20041;-74
2022/05/20 10:19:52;;;;;;;17.85;6.15;;;23.90;57.60;;;;;;4875316;29;20033;-75
2022/05/20 10:22:32;;;;;;;14.97;5.53;;;23.90;57.70;;;;;;4875586;29;20037;-74
2022/05/20 10:25:35;;;;;;;18.08;5.60;;;23.90;57.60;;;;;;4875397;29;20345;-74
2022/05/20 10:34:25;;;;;;;16.73;5.53;;;23.90;57.60;;;;;;4874614;29;20124;-74
2022/05/20 10:37:03;;;;;;;17.13;5.55;;;23.90;57.60;;;;;;4876335;29;20033;-73
2022/05/20 10:40:06;;;;;;;15.48;6.25;;;23.90;57.50;;;;;;4876557;29;20033;-74
2022/05/20 10:43:10;;;;;;;16.30;5.25;;;23.90;57.60;;;;;;4876025;29;20384;-74
2022/05/20 10:49:02;;;;;;;18.98;5.65;;;23.90;57.60;;;;;;4876301;29;20037;-75
2022/05/20 10:51:52;;;;;;;14.88;5.07;;;23.90;57.60;;;;;;4876124;29;20032;-75
2022/05/20 10:54:48;;;;;;;15.85;5.32;;;23.90;57.60;;;;;;4876468;29;20068;-73
2022/05/20 10:57:32;;;;;;;17.13;5.45;;;23.90;57.60;;;;;;4859323;29;20036;-73
2022/05/20 11:00:06;;;;;;;14.55;5.32;;;23.90;57.60;;;;;;4875964;29;20467;-74
2022/05/20 11:03:05;;;;;;;12.60;5.22;;;23.90;57.60;;;;;;4874651;29;20562;-74
2022/05/20 11:05:59;;;;;;;13.00;5.03;;;23.90;57.60;;;;;;4875843;29;20029;-74
2022/05/20 11:08:42;;;;;;;16.45;5.53;;;23.90;57.60;;;;;;4873707;29;20037;-73
2022/05/20 11:11:37;;;;;;;14.07;5.35;;;23.90;57.60;;;;;;4875092;29;20045;-74
2022/05/20 11:14:08;;;;;;;12.00;5.03;;;23.90;57.60;;;;;;4860223;29;20032;-73
2022/05/20 11:16:49;;;;;;;14.25;5.28;;;23.90;57.60;;;;;;4874710;29;20044;-74
2022/05/20 11:19:46;;;;;;;16.80;5.30;;;23.90;57.60;;;;;;4874217;29;20035;-74
2022/05/20 11:22:34;;;;;;;15.07;5.45;;;23.90;57.70;;;;;;4875597;29;20459;-74
2022/05/20 11:25:20;;;;;;;12.70;5.37;;;23.90;57.80;;;;;;4875986;29;20029;-74
2022/05/20 11:28:07;;;;;;;14.00;5.28;;;23.90;57.80;;;;;;4848304;29;20045;-74
2022/05/20 11:30:52;;;;;;;15.82;4.93;;;23.90;57.80;;;;;;4882086;29;20135;-74
2022/05/20 11:33:49;;;;;;;11.98;4.63;;;23.80;57.80;;;;;;4881834;29;20029;-74
2022/05/20 11:36:37;;;;;;;13.73;5.05;;;23.90;58.10;;;;;;4878779;29;20544;-76
2022/05/20 11:39:50;;;;;;;12.80;4.95;;;23.90;58.20;;;;;;4881488;29;20117;-75
2022/05/20 11:42:24;;;;;;;12.60;5.00;;;23.80;58.30;;;;;;4864982;29;20025;-75
2022/05/20 11:45:10;;;;;;;14.73;5.20;;;23.80;58.30;;;;;;4895317;29;20103;-75
2022/05/20 11:48:04;;;;;;;15.85;5.03;;;23.80;58.30;;;;;;4881173;29;20033;-75
2022/05/20 11:50:57;;;;;;;19.65;5.15;;;23.80;58.40;;;;;;4879196;29;20029;-75
2022/05/20 11:53:34;;;;;;;15.20;4.55;;;23.80;58.30;;;;;;4881248;29;20037;-77
2022/05/20 11:56:21;;;;;;;14.40;4.70;;;23.80;59.00;;;;;;4880502;29;20112;-79
2022/05/20 11:59:06;;;;;;;15.52;5.20;;;23.90;57.50;;;;;;4878415;29;20035;-79
2022/05/20 12:01:33;;;;;;;14.38;4.60;;;23.90;57.40;;;;;;4881765;29;20037;-80
2022/05/20 12:04:07;;;;;;;15.13;5.15;;;24.00;56.30;;;;;;4882034;29;20052;-79
2022/05/20 12:06:58;;;;;;;17.80;4.25;;;24.00;57.30;;;;;;4864885;29;20036;-77
2022/05/20 12:09:48;;;;;;;15.20;4.93;;;24.00;55.80;;;;;;4864231;29;20494;-75
2022/05/20 12:12:15;;;;;;;10.77;3.90;;;24.00;56.30;;;;;;4881510;29;20092;-73
2022/05/20 12:14:53;;;;;;;11.50;4.63;;;24.00;55.00;;;;;;4881115;29;20025;-74
2022/05/20 12:17:39;;;;;;;18.27;10.65;;;24.00;55.60;;;;;;4881244;29;20049;-74
2022/05/20 12:26:21;;;;;;;15.52;8.40;;;23.90;53.70;;;;;;4878234;29;20041;-73
2022/05/20 12:28:47;;;;;;;15.95;7.55;;;23.90;51.80;;;;;;4880818;29;20041;-73
2022/05/20 12:31:14;;;;;;;12.38;6.82;;;23.90;51.10;;;;;;4880487;29;20084;-73
2022/05/20 12:33:56;;;;;;;12.90;6.05;;;24.00;50.40;;;;;;4864026;29;20402;-74
2022/05/20 12:36:34;;;;;;;13.07;6.05;;;24.00;50.20;;;;;;4881388;29;20033;-73
2022/05/20 12:39:06;;;;;;;11.10;5.57;;;24.00;51.20;;;;;;4874129;29;20033;-73
2022/05/20 12:41:38;;;;;;;12.07;4.88;;;24.00;51.50;;;;;;4878426;29;20033;-73
2022/05/20 12:44:16;;;;;;;9.93;4.60;;;23.90;50.90;;;;;;4877715;29;20029;-73
2022/05/20 12:47:13;;;;;;;9.60;5.03;;;23.90;51.00;;;;;;4878909;29;20037;-74
2022/05/20 12:49:48;;;;;;;10.57;4.15;;;23.90;51.50;;;;;;4878197;29;20104;-73
2022/05/20 12:52:21;;;;;;;7.28;3.70;;;23.90;50.00;;;;;;4873994;29;20037;-73
2022/05/20 12:54:52;;;;;;;8.57;4.47;;;23.90;49.30;;;;;;4878250;29;20397;-73
2022/05/20 12:57:33;;;;;;;9.18;4.50;;;23.90;50.50;;;;;;4876310;29;20029;-73
2022/05/20 13:00:07;;;;;;;9.60;3.83;;;23.90;49.90;;;;;;4876237;29;20060;-73
2022/05/20 13:02:36;;;;;;;9.00;4.10;;;23.90;48.60;;;;;;4860939;29;20056;-73
2022/05/20 13:05:21;;;;;;;9.55;3.60;;;24.00;50.30;;;;;;4877768;29;20029;-73
2022/05/20 13:07:48;;;;;;;8.50;3.35;;;23.90;48.60;;;;;;4878366;29;20025;-73
2022/05/20 13:10:26;;;;;;;8.38;3.00;;;23.90;49.30;;;;;;4879062;29;20032;-73
2022/05/20 13:12:55;;;;;;;8.63;3.47;;;23.90;48.70;;;;;;4862220;29;20033;-73
2022/05/20 13:15:20;;;;;;;7.72;3.70;;;23.90;50.40;;;;;;4879257;29;20048;-73
2022/05/20 13:18:05;;;;;;;6.70;3.40;;;23.90;50.30;;;;;;4878041;29;20033;-73
2022/05/20 13:20:34;;;;;;;6.65;3.30;;;23.90;50.20;;;;;;4878563;29;20405;-73
2022/05/20 13:23:04;;;;;;;5.88;3.10;;;23.90;50.30;;;;;;4879132;29;20410;-72
2022/05/20 13:25:30;;;;;;;6.35;3.05;;;23.90;49.90;;;;;;4862747;29;20397;-73
2022/05/20 13:27:58;;;;;;;4.57;2.55;;;23.90;49.90;;;;;;4877573;29;20033;-73
2022/05/20 13:30:27;;;;;;;7.60;2.85;;;23.90;48.70;;;;;;4879531;29;20029;-73
2022/05/20 13:32:59;;;;;;;;;;;23.90;48.30;;;;;;4878505;29;20128;-74
2022/05/20 13:35:25;;;;;;;7.82;2.75;;;23.90;49.20;;;;;;4878062;29;20031;-74
2022/05/20 13:37:52;;;;;;;7.03;2.90;;;23.90;49.50;;;;;;4877758;29;20029;-74
2022/05/20 13:40:39;;;;;;;7.95;3.05;;;23.90;49.40;;;;;;4877580;29;20120;-74
2022/05/20 13:43:05;;;;;;;6.80;3.00;;;23.90;50.80;;;;;;4879144;29;20442;-73
2022/05/20 13:49:17;;;;;;;6.93;2.90;;;23.90;50.70;;;;;;4878779;29;20115;-74
2022/05/20 13:51:20;;;;;;;8.38;3.03;;;23.90;52.40;;;;;;4868056;29;20040;-74
2022/05/20 13:53:49;;;;;;;7.18;3.20;;;23.90;52.40;;;;;;4878816;29;20033;-74
2022/05/20 13:56:16;;;;;;;5.80;2.80;;;24.00;53.20;;;;;;4878699;29;20052;-74
2022/05/20 13:58:43;;;;;;;8.73;3.20;;;24.00;53.10;;;;;;4877778;29;20028;-74